Date,TemperatureHighF,TemperatureAvgF,TemperatureLowF,DewpointHighF,DewpointAvgF,DewpointLowF,HumidityHigh,HumidityAvg,HumidityLow,PressureMaxIn,PressureMinIn,WindSpeedMaxMPH,WindSpeedAvgMPH,GustSpeedMaxMPH,PrecipitationSumIn
2013-1-1,40,36,32,34,31,28,92,82,74,30.02,29.89,7,1,0,0.00
2013-1-2,41,39,37,38,33,31,89,78,70,30.49,29.98,14,2,0,0.00
2013-1-3,45,40,36,40,35,31,87,82,74,30.51,30.39,12,3,0,0.04
2013-1-4,50,47,44,46,42,39,93,85,71,30.52,30.26,10,3,0,0.47
2013-1-5,49,46,42,46,42,40,93,87,81,30.43,30.25,6,1,0,0.03
2013-1-6,45,43,41,42,40,39,93,89,84,30.41,30.21,7,1,0,0.11
2013-1-7,45,40,38,42,38,36,93,90,88,30.44,30.27,4,0,0,0.15
2013-1-8,42,40,37,40,38,35,94,92,90,30.40,30.26,5,0,0,0.14
2013-1-9,44,42,41,41,39,36,92,88,84,30.28,29.96,6,1,0,0.00
2013-1-10,40,38,36,36,35,32,92,87,81,29.96,29.79,6,2,0,0.17
2013-1-11,36,30,27,33,25,20,90,82,74,30.12,29.81,6,1,0,0.02
2013-1-12,31,27,24,23,21,18,85,78,67,30.19,30.10,2,0,0,0.02
2013-1-13,28,27,25,24,22,19,86,81,75,30.19,30.15,2,0,0,0.00
2013-1-14,29,27,24,27,24,21,91,88,83,30.15,30.00,2,0,0,0.00
2013-1-15,29,25,19,27,22,17,93,90,89,30.03,29.86,1,0,0,0.00
2013-1-16,28,27,26,26,25,24,99,92,91,29.88,29.83,2,0,0,0.00
2013-1-17,29,27,26,26,24,22,90,87,82,30.02,29.85,5,1,0,0.00
2013-1-18,26,23,21,23,20,18,98,89,86,30.01,29.82,2,0,0,0.00
2013-1-19,24,22,21,19,18,17,88,86,80,29.81,29.66,1,0,0,0.00
2013-1-20,28,24,21,25,21,18,90,88,86,29.68,29.57,2,0,0,0.00
2013-1-21,28,25,22,25,23,19,93,91,90,29.70,29.56,1,0,0,0.00
2013-1-22,24,21,19,19,17,16,91,85,77,29.90,29.71,1,0,0,0.00
2013-1-23,25,23,21,21,19,17,92,85,82,29.92,29.88,4,0,0,0.00
2013-1-24,25,23,21,22,20,18,92,87,84,30.11,29.89,1,0,0,0.00
2013-1-25,24,20,12,19,16,8,87,85,79,30.27,30.11,2,0,0,0.00
2013-1-26,20,14,7,15,10,3,90,85,80,30.21,30.13,2,0,0,0.00
2013-1-27,31,26,17,29,22,14,91,87,81,30.13,29.86,2,0,0,0.00
2013-1-28,38,34,30,34,31,27,93,89,82,30.17,29.87,5,1,0,0.22
2013-1-29,43,39,31,40,36,28,92,89,84,30.17,29.94,11,2,0,0.46
2013-1-30,55,48,42,49,44,39,93,87,77,29.97,29.75,11,3,0,0.26
2013-1-31,47,44,39,40,35,32,89,71,58,30.03,29.84,11,4,0,0.08
2013-2-1,45,41,38,37,36,34,92,81,71,29.91,29.36,12,2,0,0.07
2013-2-2,40,38,31,38,33,23,93,84,73,29.84,29.26,9,2,0,0.05
2013-2-3,37,33,28,31,25,22,88,75,63,30.05,29.84,6,2,0,0.00
2013-2-4,41,37,33,38,34,30,90,87,83,29.89,29.79,14,3,0,0.08
2013-2-5,44,40,36,37,34,31,89,80,67,29.89,29.55,7,2,0,0.00
2013-2-6,39,34,28,30,26,23,85,73,54,29.69,29.58,2,0,0,0.00
2013-2-7,38,32,29,30,27,25,87,82,70,29.91,29.69,4,0,0,0.01
2013-2-8,35,31,27,28,25,23,88,81,68,30.03,29.90,5,0,0,0.01
2013-2-9,32,30,28,26,24,23,89,80,71,30.15,30.03,2,0,0,0.00
2013-2-10,32,29,26,24,22,19,86,75,64,30.15,30.00,2,0,0,0.00
2013-2-11,29,27,24,23,21,19,85,77,67,30.00,29.87,6,0,0,0.00
2013-2-12,30,29,28,27,25,23,91,85,79,30.04,29.84,2,0,0,0.00
2013-2-13,32,29,28,29,26,25,92,88,81,30.42,30.04,2,0,0,0.08
2013-2-14,33,30,28,28,26,25,90,87,83,30.42,30.20,1,0,0,0.01
2013-2-15,35,32,30,32,29,27,90,88,86,30.27,30.14,0,0,0,0.01
2013-2-16,36,33,31,32,30,28,92,88,84,30.34,30.27,1,0,0,0.10
2013-2-17,36,33,32,33,31,30,92,90,86,30.35,30.32,1,0,0,0.06
2013-2-18,36,33,31,31,29,28,92,86,77,30.32,30.18,2,0,0,0.00
2013-2-19,34,32,30,32,29,27,91,87,78,30.18,29.91,7,2,0,0.10
2013-2-20,32,29,25,27,25,23,90,86,71,30.24,30.06,6,1,0,0.02
2013-2-21,28,25,23,23,21,19,91,86,77,30.26,30.18,4,0,0,0.03
2013-2-22,27,24,21,23,20,17,90,84,75,30.18,29.98,4,1,0,0.00
2013-2-23,32,27,23,29,25,21,92,90,89,29.98,29.85,1,0,0,0.00
2013-2-24,38,33,28,33,30,25,95,90,81,30.05,29.86,2,0,0,0.05
2013-2-25,41,36,34,39,33,-100,100,92,92,30.36,30.03,0,-21,0,0.24
2013-2-26,39,36,33,36,34,31,95,91,86,30.46,30.34,4,0,0,0.00
2013-2-27,37,34,32,34,32,31,94,91,86,30.52,30.47,2,0,0,0.00
2013-2-28,39,36,33,35,32,31,93,86,78,30.51,30.30,2,0,0,0.00
2013-3-1,38,35,34,33,30,28,92,83,76,30.33,30.23,5,1,0,0.01
2013-3-2,41,34,30,30,27,25,85,74,58,30.36,30.22,3,0,0,0.00
2013-3-3,39,34,30,31,27,24,82,76,68,30.33,30.19,6,1,0,0.00
2013-3-4,44,36,29,30,27,25,88,70,48,30.37,30.28,4,0,0,0.00
2013-3-5,50,38,30,34,29,25,89,72,52,30.28,29.97,5,0,0,0.00
2013-3-6,52,40,29,38,32,26,91,76,57,29.97,29.74,2,0,0,0.00
2013-3-7,50,43,37,44,40,34,94,87,77,29.74,29.68,2,0,0,0.01
2013-3-8,47,44,39,44,42,38,96,92,86,29.75,29.71,2,0,0,0.01
2013-3-9,41,40,38,40,38,36,96,95,94,29.74,29.67,0,0,0,0.11
2013-3-10,54,46,40,46,42,39,96,87,62,29.67,29.51,5,0,0,0.01
2013-3-11,46,31,26,42,27,22,89,84,81,29.79,29.51,4,0,0,0.06
2013-3-12,30,27,26,26,23,22,89,86,82,29.78,29.62,2,0,0,0.00
2013-3-13,30,26,23,23,21,18,90,83,73,29.84,29.62,4,1,0,0.02
2013-3-14,32,25,19,21,18,15,85,73,56,29.93,29.84,11,1,0,0.07
2013-3-15,32,26,21,23,19,17,87,76,58,30.17,29.91,6,1,0,0.01
2013-3-16,37,28,18,21,17,13,89,66,39,30.25,30.12,5,0,0,0.03
2013-3-17,42,32,23,24,20,16,76,63,48,30.13,29.78,8,1,0,0.00
2013-3-18,41,33,28,32,27,23,94,79,64,29.77,29.34,5,1,0,0.02
2013-3-19,41,35,32,35,32,30,95,89,80,29.68,29.32,5,1,0,0.40
2013-3-20,50,41,35,38,35,31,90,78,59,29.87,29.68,5,1,0,0.09
2013-3-21,40,36,29,36,30,24,89,80,67,30.17,29.86,7,1,0,0.01
2013-3-22,34,30,28,26,24,21,86,77,66,30.23,30.16,5,1,0,0.00
2013-3-23,32,26,18,22,14,7,77,62,46,30.33,30.22,5,1,0,0.00
2013-3-24,34,24,16,15,9,6,68,55,33,30.32,30.20,7,1,0,0.00
2013-3-25,32,27,22,17,14,13,71,61,47,30.20,30.03,5,1,0,0.00
2013-3-26,33,29,26,15,12,8,62,50,36,30.03,29.95,6,2,0,0.00
2013-3-27,30,28,25,26,21,13,88,76,55,30.02,29.98,4,0,0,0.00
2013-3-28,40,33,28,29,27,23,89,77,63,30.01,29.86,4,0,0,0.01
2013-3-29,43,36,32,33,28,24,90,73,54,29.85,29.76,10,1,0,0.07
2013-3-30,45,36,30,30,28,25,83,72,55,29.82,29.75,5,0,0,0.01
2013-11-8,-200,0,200,-100,-100,-100,0,0,100,0.00,0.00,0,-999,0,0.00
2013-11-9,52,33,43,48,-4,-100,89,53,70,29.99,0.00,6,-322,0,0.00
2013-11-10,49,43,39,43,39,36,92,87,73,30.11,29.72,4,0,0,0.01
2013-11-11,44,42,40,39,38,36,92,85,80,30.59,30.12,4,0,0,0.00
2013-11-12,45,38,32,36,33,28,92,81,68,30.58,30.36,2,0,0,0.00
2013-11-13,44,37,32,41,34,30,94,89,84,30.54,30.36,5,0,0,0.00
2013-11-14,36,34,30,34,32,27,93,91,87,30.48,30.23,1,0,0,0.36
2013-11-15,39,37,34,37,35,32,93,93,92,30.53,30.27,0,0,0,0.10
2013-11-16,47,40,35,41,38,33,93,90,79,30.56,30.43,1,0,0,0.01
2013-11-17,38,35,33,37,34,31,100,94,92,30.43,30.24,0,0,0,0.01
2013-11-18,43,41,38,42,39,36,96,94,91,30.24,29.95,2,0,0,0.01
2013-11-19,46,44,42,43,41,39,91,89,87,29.95,29.69,4,0,0,0.00
2013-11-20,45,42,39,42,39,35,93,90,86,29.73,29.61,4,0,0,0.01
2013-11-21,43,16,38,40,-44,-100,92,36,85,29.73,29.61,2,-584,0,0.00
2013-11-22,47,26,42,43,-17,-100,93,50,78,29.93,29.68,2,-410,0,0.00
2013-11-23,46,37,40,41,22,-100,92,77,81,30.03,29.92,4,-125,0,0.00
2013-11-24,44,40,34,42,36,26,91,86,72,30.21,30.00,7,1,0,0.01
2013-11-25,37,32,30,30,26,24,85,78,71,30.41,30.21,6,1,0,0.39
2013-11-26,34,31,28,28,27,25,87,82,72,30.59,30.41,6,0,0,0.03
2013-11-27,34,29,23,25,23,20,88,77,65,30.64,30.55,3,0,0,0.01
2013-11-28,38,35,31,34,30,23,87,81,70,30.55,30.37,8,2,0,0.12
2013-11-29,41,38,36,35,34,33,89,84,77,30.40,29.91,10,2,0,0.06
2013-11-30,42,39,36,35,34,33,90,85,78,30.36,29.89,7,2,0,0.06
2013-12-1,42,39,38,36,34,32,88,82,75,30.45,30.36,6,1,0,0.00
2013-12-2,43,37,30,37,34,28,92,86,73,30.70,30.46,4,0,0,0.00
2013-12-3,36,30,26,31,27,24,93,89,77,30.68,30.49,1,0,0,0.01
2013-12-4,37,30,24,32,27,22,93,89,82,30.48,30.32,8,1,0,0.00
2013-12-5,41,38,35,36,32,30,88,81,72,30.41,29.72,12,3,0,0.06
2013-12-6,39,35,32,36,27,24,89,75,64,30.06,29.75,13,4,0,0.02
2013-12-7,36,34,30,32,28,24,89,78,68,30.31,30.05,12,3,0,0.04
2013-12-8,42,40,36,37,35,32,88,84,79,30.37,30.28,7,2,0,0.03
2013-12-9,45,44,42,41,39,37,88,84,81,30.52,30.24,11,3,0,0.08
2013-12-10,49,46,44,44,42,40,88,86,83,30.70,30.52,4,0,0,0.00
2013-12-11,44,42,40,41,39,37,89,88,87,30.70,30.63,3,0,0,0.00
2013-12-12,40,36,33,37,34,32,94,92,89,30.65,30.50,2,0,0,0.01
2013-12-13,33,32,32,32,31,30,95,95,94,30.50,30.39,3,0,0,0.01
2013-12-14,38,34,31,35,32,30,95,93,87,30.55,30.38,5,1,0,0.00
2013-12-15,43,39,37,36,34,31,90,81,73,30.59,30.51,6,1,0,0.00
2013-12-16,44,35,29,33,30,25,93,82,64,30.60,30.55,1,0,0,0.00
2013-12-17,36,29,26,31,27,24,94,90,78,30.56,30.50,0,0,0,0.01
2013-12-18,30,29,28,28,27,26,94,92,89,30.51,30.27,3,0,0,0.00
2013-12-19,32,30,28,27,26,25,90,86,82,30.26,30.10,4,0,0,0.00
2013-12-20,38,34,32,35,30,27,90,86,82,30.59,30.20,8,0,0,0.01
2013-12-21,41,34,29,34,30,26,91,85,75,30.64,30.44,4,0,0,0.00
2013-12-22,48,38,29,43,34,26,94,87,80,30.43,30.21,5,0,0,0.01
2013-12-23,50,46,42,42,40,38,84,78,67,30.26,30.05,6,1,0,0.00
2013-12-24,42,38,33,38,33,29,89,84,79,30.04,29.72,4,0,0,0.00
2013-12-25,43,37,32,39,34,29,93,89,87,29.72,29.48,2,0,0,0.00
2013-12-26,49,40,36,44,38,34,96,90,82,29.69,29.39,4,0,0,0.00
2013-12-27,46,42,38,40,38,34,93,85,72,29.93,29.70,5,1,0,0.00
2013-12-28,40,36,32,37,33,29,92,88,85,29.90,29.84,2,0,0,0.00
2013-12-29,44,40,36,38,35,32,92,82,72,30.37,29.89,5,1,0,0.00
2013-12-30,42,34,27,34,30,25,92,85,71,30.51,30.38,4,0,0,0.01
2013-12-31,32,28,24,30,26,22,99,92,91,30.43,30.19,0,0,0,0.00
2014-1-1,39,35,30,35,32,26,93,87,82,30.19,30.04,2,0,0,0.00
2014-1-2,38,34,29,35,31,25,91,87,84,30.04,29.93,2,0,0,0.00